sensor_id;sensor_type;location;lat;lon;timestamp;P1;durP1;ratioP1;P2;durP2;ratioP2
13327;SDS011;6733;51.044;3.746;2023-04-01T00:00:30;14.57;;;5.77;;
13327;SDS011;6733;51.044;3.746;2023-04-01T00:02:57;10.10;;;6.40;;
13327;SDS011;6733;51.044;3.746;2023-04-01T00:05:23;11.23;;;6.63;;
13327;SDS011;6733;51.044;3.746;2023-04-01T00:07:50;11.07;;;5.77;;
13327;SDS011;6733;51.044;3.746;2023-04-01T00:10:17;9.57;;;6.27;;
13327;SDS011;6733;51.044;3.746;2023-04-01T00:12:43;12.30;;;6.17;;
13327;SDS011;6733;51.044;3.746;2023-04-01T00:15:10;13.97;;;6.90;;
13327;SDS011;6733;51.044;3.746;2023-04-01T00:17:37;13.47;;;6.73;;
13327;SDS011;6733;51.044;3.746;2023-04-01T00:20:04;12.83;;;6.77;;
13327;SDS011;6733;51.044;3.746;2023-04-01T00:22:32;13.57;;;6.27;;
13327;SDS011;6733;51.044;3.746;2023-04-01T00:24:59;14.50;;;6.13;;
13327;SDS011;6733;51.044;3.746;2023-04-01T00:27:25;13.63;;;6.10;;
13327;SDS011;6733;51.044;3.746;2023-04-01T00:29:52;12.10;;;6.33;;
13327;SDS011;6733;51.044;3.746;2023-04-01T00:32:18;10.00;;;6.50;;
13327;SDS011;6733;51.044;3.746;2023-04-01T00:34:44;17.10;;;6.13;;
13327;SDS011;6733;51.044;3.746;2023-04-01T00:37:11;10.63;;;5.50;;
13327;SDS011;6733;51.044;3.746;2023-04-01T00:39:37;9.40;;;4.93;;
13327;SDS011;6733;51.044;3.746;2023-04-01T00:42:04;14.80;;;5.37;;
13327;SDS011;6733;51.044;3.746;2023-04-01T00:44:31;14.37;;;5.90;;
13327;SDS011;6733;51.044;3.746;2023-04-01T00:46:59;13.23;;;5.10;;
13327;SDS011;6733;51.044;3.746;2023-04-01T00:49:29;9.23;;;5.60;;
13327;SDS011;6733;51.044;3.746;2023-04-01T00:51:59;8.73;;;5.40;;
13327;SDS011;6733;51.044;3.746;2023-04-01T00:54:27;9.60;;;5.73;;
13327;SDS011;6733;51.044;3.746;2023-04-01T00:56:56;8.13;;;4.97;;
13327;SDS011;6733;51.044;3.746;2023-04-01T00:59:37;8.67;;;5.07;;
13327;SDS011;6733;51.044;3.746;2023-04-01T01:02:08;6.33;;;4.50;;
13327;SDS011;6733;51.044;3.746;2023-04-01T01:04:37;7.20;;;3.77;;
13327;SDS011;6733;51.044;3.746;2023-04-01T01:10:33;10.53;;;4.63;;
13327;SDS011;6733;51.044;3.746;2023-04-01T01:35:21;9.80;;;4.33;;
13327;SDS011;6733;51.044;3.746;2023-04-01T01:38:11;10.80;;;5.17;;
13327;SDS011;6733;51.044;3.746;2023-04-01T01:40:41;9.87;;;4.50;;
13327;SDS011;6733;51.044;3.746;2023-04-01T01:43:11;10.60;;;4.70;;
13327;SDS011;6733;51.044;3.746;2023-04-01T01:45:42;12.77;;;4.90;;
13327;SDS011;6733;51.044;3.746;2023-04-01T01:48:13;11.70;;;4.80;;
13327;SDS011;6733;51.044;3.746;2023-04-01T01:50:41;14.53;;;5.30;;
13327;SDS011;6733;51.044;3.746;2023-04-01T01:53:11;8.43;;;4.13;;
13327;SDS011;6733;51.044;3.746;2023-04-01T01:55:39;11.93;;;5.17;;
13327;SDS011;6733;51.044;3.746;2023-04-01T02:00:40;12.17;;;4.67;;
13327;SDS011;6733;51.044;3.746;2023-04-01T02:03:10;7.93;;;3.73;;
13327;SDS011;6733;51.044;3.746;2023-04-01T02:05:38;8.27;;;4.50;;
13327;SDS011;6733;51.044;3.746;2023-04-01T02:08:10;9.83;;;3.60;;
13327;SDS011;6733;51.044;3.746;2023-04-01T02:10:53;10.50;;;4.17;;
13327;SDS011;6733;51.044;3.746;2023-04-01T02:13:27;9.83;;;4.23;;
13327;SDS011;6733;51.044;3.746;2023-04-01T02:16:00;10.73;;;3.67;;
13327;SDS011;6733;51.044;3.746;2023-04-01T02:18:30;8.97;;;3.90;;
13327;SDS011;6733;51.044;3.746;2023-04-01T02:20:59;8.30;;;3.60;;
13327;SDS011;6733;51.044;3.746;2023-04-01T02:23:26;9.53;;;3.67;;
13327;SDS011;6733;51.044;3.746;2023-04-01T02:25:54;9.63;;;3.57;;
13327;SDS011;6733;51.044;3.746;2023-04-01T02:28:20;9.43;;;3.97;;
13327;SDS011;6733;51.044;3.746;2023-04-01T02:30:49;9.23;;;4.00;;
13327;SDS011;6733;51.044;3.746;2023-04-01T02:33:41;9.43;;;3.93;;
13327;SDS011;6733;51.044;3.746;2023-04-01T02:36:32;6.80;;;3.70;;
13327;SDS011;6733;51.044;3.746;2023-04-01T02:39:01;10.93;;;4.23;;
13327;SDS011;6733;51.044;3.746;2023-04-01T02:41:29;9.93;;;4.97;;
13327;SDS011;6733;51.044;3.746;2023-04-01T02:43:56;7.30;;;4.67;;
13327;SDS011;6733;51.044;3.746;2023-04-01T02:46:24;12.53;;;4.60;;
13327;SDS011;6733;51.044;3.746;2023-04-01T02:48:50;10.37;;;4.53;;
13327;SDS011;6733;51.044;3.746;2023-04-01T02:51:16;10.87;;;4.97;;
13327;SDS011;6733;51.044;3.746;2023-04-01T02:53:42;8.87;;;4.40;;
13327;SDS011;6733;51.044;3.746;2023-04-01T02:56:09;8.03;;;4.73;;
13327;SDS011;6733;51.044;3.746;2023-04-01T02:58:35;10.27;;;4.33;;
13327;SDS011;6733;51.044;3.746;2023-04-01T03:01:01;9.97;;;4.97;;
13327;SDS011;6733;51.044;3.746;2023-04-01T03:03:27;12.27;;;5.20;;
13327;SDS011;6733;51.044;3.746;2023-04-01T03:05:53;10.07;;;5.13;;
13327;SDS011;6733;51.044;3.746;2023-04-01T03:08:21;11.23;;;4.97;;
13327;SDS011;6733;51.044;3.746;2023-04-01T03:10:47;7.90;;;4.43;;
13327;SDS011;6733;51.044;3.746;2023-04-01T03:13:13;10.00;;;4.33;;
13327;SDS011;6733;51.044;3.746;2023-04-01T03:15:40;9.33;;;4.80;;
13327;SDS011;6733;51.044;3.746;2023-04-01T03:18:06;13.43;;;5.20;;
13327;SDS011;6733;51.044;3.746;2023-04-01T03:20:32;7.37;;;4.30;;
13327;SDS011;6733;51.044;3.746;2023-04-01T03:22:58;6.63;;;4.27;;
13327;SDS011;6733;51.044;3.746;2023-04-01T03:25:25;8.73;;;4.40;;
13327;SDS011;6733;51.044;3.746;2023-04-01T03:27:52;9.93;;;4.13;;
13327;SDS011;6733;51.044;3.746;2023-04-01T03:30:18;11.50;;;4.43;;
13327;SDS011;6733;51.044;3.746;2023-04-01T03:32:44;11.23;;;4.47;;
13327;SDS011;6733;51.044;3.746;2023-04-01T03:35:10;9.63;;;4.83;;
13327;SDS011;6733;51.044;3.746;2023-04-01T03:37:36;6.97;;;3.33;;
13327;SDS011;6733;51.044;3.746;2023-04-01T03:40:03;5.70;;;3.50;;
13327;SDS011;6733;51.044;3.746;2023-04-01T03:42:30;6.60;;;2.90;;
13327;SDS011;6733;51.044;3.746;2023-04-01T03:44:57;4.87;;;2.97;;
13327;SDS011;6733;51.044;3.746;2023-04-01T03:47:23;5.90;;;3.10;;
13327;SDS011;6733;51.044;3.746;2023-04-01T03:49:50;3.13;;;2.83;;
13327;SDS011;6733;51.044;3.746;2023-04-01T03:52:16;3.43;;;2.67;;
13327;SDS011;6733;51.044;3.746;2023-04-01T03:54:42;4.67;;;2.70;;
13327;SDS011;6733;51.044;3.746;2023-04-01T03:57:08;3.13;;;2.80;;
13327;SDS011;6733;51.044;3.746;2023-04-01T03:59:34;3.20;;;2.60;;
13327;SDS011;6733;51.044;3.746;2023-04-01T04:02:00;4.43;;;3.00;;
13327;SDS011;6733;51.044;3.746;2023-04-01T04:04:27;3.50;;;2.80;;
13327;SDS011;6733;51.044;3.746;2023-04-01T04:06:53;4.27;;;2.87;;
13327;SDS011;6733;51.044;3.746;2023-04-01T04:09:20;3.80;;;2.80;;
13327;SDS011;6733;51.044;3.746;2023-04-01T04:11:46;3.03;;;2.73;;
13327;SDS011;6733;51.044;3.746;2023-04-01T04:14:12;4.90;;;3.00;;
13327;SDS011;6733;51.044;3.746;2023-04-01T04:16:38;3.80;;;3.00;;
13327;SDS011;6733;51.044;3.746;2023-04-01T04:19:04;3.97;;;2.80;;
13327;SDS011;6733;51.044;3.746;2023-04-01T04:21:30;4.43;;;2.93;;
13327;SDS011;6733;51.044;3.746;2023-04-01T04:23:58;2.90;;;2.70;;
13327;SDS011;6733;51.044;3.746;2023-04-01T04:26:25;3.07;;;2.50;;
13327;SDS011;6733;51.044;3.746;2023-04-01T04:28:53;6.10;;;2.93;;
13327;SDS011;6733;51.044;3.746;2023-04-01T04:31:20;5.53;;;3.33;;
13327;SDS011;6733;51.044;3.746;2023-04-01T04:33:48;4.10;;;2.93;;
13327;SDS011;6733;51.044;3.746;2023-04-01T04:36:14;3.60;;;3.30;;
13327;SDS011;6733;51.044;3.746;2023-04-01T04:38:41;4.13;;;3.07;;
13327;SDS011;6733;51.044;3.746;2023-04-01T04:41:10;4.63;;;2.90;;
13327;SDS011;6733;51.044;3.746;2023-04-01T04:43:40;5.00;;;3.70;;
13327;SDS011;6733;51.044;3.746;2023-04-01T04:46:08;5.60;;;3.87;;
13327;SDS011;6733;51.044;3.746;2023-04-01T04:48:36;5.47;;;4.40;;
13327;SDS011;6733;51.044;3.746;2023-04-01T04:51:02;5.97;;;4.13;;
13327;SDS011;6733;51.044;3.746;2023-04-01T04:53:29;7.07;;;4.93;;
13327;SDS011;6733;51.044;3.746;2023-04-01T04:55:55;8.63;;;4.90;;
13327;SDS011;6733;51.044;3.746;2023-04-01T04:58:21;7.20;;;4.07;;
13327;SDS011;6733;51.044;3.746;2023-04-01T05:00:47;5.13;;;4.63;;
13327;SDS011;6733;51.044;3.746;2023-04-01T05:03:13;6.47;;;5.20;;
13327;SDS011;6733;51.044;3.746;2023-04-01T05:05:47;7.97;;;5.43;;
13327;SDS011;6733;51.044;3.746;2023-04-01T05:08:15;6.90;;;5.60;;
13327;SDS011;6733;51.044;3.746;2023-04-01T05:10:41;7.30;;;4.47;;
13327;SDS011;6733;51.044;3.746;2023-04-01T05:13:07;5.27;;;4.73;;
13327;SDS011;6733;51.044;3.746;2023-04-01T05:15:33;6.87;;;5.13;;
13327;SDS011;6733;51.044;3.746;2023-04-01T05:18:01;6.27;;;4.23;;
13327;SDS011;6733;51.044;3.746;2023-04-01T05:20:27;8.27;;;4.70;;
13327;SDS011;6733;51.044;3.746;2023-04-01T05:22:56;5.73;;;5.03;;
13327;SDS011;6733;51.044;3.746;2023-04-01T05:25:23;6.57;;;4.50;;
13327;SDS011;6733;51.044;3.746;2023-04-01T05:27:49;7.63;;;4.43;;
13327;SDS011;6733;51.044;3.746;2023-04-01T05:30:16;7.33;;;4.23;;
13327;SDS011;6733;51.044;3.746;2023-04-01T05:32:42;7.77;;;4.77;;
13327;SDS011;6733;51.044;3.746;2023-04-01T05:35:09;7.10;;;4.70;;
13327;SDS011;6733;51.044;3.746;2023-04-01T05:37:35;4.93;;;4.27;;
13327;SDS011;6733;51.044;3.746;2023-04-01T05:40:03;5.47;;;4.80;;
13327;SDS011;6733;51.044;3.746;2023-04-01T05:42:30;6.47;;;4.50;;
13327;SDS011;6733;51.044;3.746;2023-04-01T05:44:56;4.97;;;4.10;;
13327;SDS011;6733;51.044;3.746;2023-04-01T05:47:22;5.97;;;3.70;;
13327;SDS011;6733;51.044;3.746;2023-04-01T05:49:48;5.43;;;4.27;;
13327;SDS011;6733;51.044;3.746;2023-04-01T05:52:14;5.87;;;4.43;;
13327;SDS011;6733;51.044;3.746;2023-04-01T05:54:40;5.43;;;3.63;;
13327;SDS011;6733;51.044;3.746;2023-04-01T05:57:06;4.20;;;3.70;;
13327;SDS011;6733;51.044;3.746;2023-04-01T05:59:32;3.90;;;2.83;;
13327;SDS011;6733;51.044;3.746;2023-04-01T06:02:00;5.00;;;2.70;;
13327;SDS011;6733;51.044;3.746;2023-04-01T06:04:27;4.13;;;2.77;;
13327;SDS011;6733;51.044;3.746;2023-04-01T06:06:58;3.03;;;2.50;;
13327;SDS011;6733;51.044;3.746;2023-04-01T06:09:26;3.33;;;2.43;;
13327;SDS011;6733;51.044;3.746;2023-04-01T06:31:56;3.70;;;2.23;;
13327;SDS011;6733;51.044;3.746;2023-04-01T06:37:03;2.57;;;2.23;;
13327;SDS011;6733;51.044;3.746;2023-04-01T06:40:10;2.20;;;2.00;;
13327;SDS011;6733;51.044;3.746;2023-04-01T06:51:44;2.07;;;1.73;;
13327;SDS011;6733;51.044;3.746;2023-04-01T06:54:24;1.73;;;1.60;;
13327;SDS011;6733;51.044;3.746;2023-04-01T06:57:00;2.30;;;1.70;;
13327;SDS011;6733;51.044;3.746;2023-04-01T06:59:35;2.73;;;2.03;;
13327;SDS011;6733;51.044;3.746;2023-04-01T07:04:36;3.50;;;1.60;;
13327;SDS011;6733;51.044;3.746;2023-04-01T07:07:12;2.03;;;1.60;;
13327;SDS011;6733;51.044;3.746;2023-04-01T07:09:55;1.53;;;1.40;;
13327;SDS011;6733;51.044;3.746;2023-04-01T07:12:36;2.87;;;1.83;;
13327;SDS011;6733;51.044;3.746;2023-04-01T07:15:50;2.47;;;1.60;;
13327;SDS011;6733;51.044;3.746;2023-04-01T07:18:03;1.97;;;1.60;;
13327;SDS011;6733;51.044;3.746;2023-04-01T07:20:36;2.03;;;1.80;;
13327;SDS011;6733;51.044;3.746;2023-04-01T07:23:16;1.50;;;1.40;;
13327;SDS011;6733;51.044;3.746;2023-04-01T07:25:51;1.43;;;1.20;;
13327;SDS011;6733;51.044;3.746;2023-04-01T07:28:21;2.00;;;1.60;;
13327;SDS011;6733;51.044;3.746;2023-04-01T07:31:03;1.70;;;1.37;;
13327;SDS011;6733;51.044;3.746;2023-04-01T07:33:36;2.03;;;1.27;;
13327;SDS011;6733;51.044;3.746;2023-04-01T07:44:20;2.70;;;1.83;;
13327;SDS011;6733;51.044;3.746;2023-04-01T07:52:43;2.63;;;1.93;;
13327;SDS011;6733;51.044;3.746;2023-04-01T07:55:36;2.00;;;1.80;;
13327;SDS011;6733;51.044;3.746;2023-04-01T08:01:11;2.97;;;2.00;;
13327;SDS011;6733;51.044;3.746;2023-04-01T08:04:08;5.23;;;2.30;;
13327;SDS011;6733;51.044;3.746;2023-04-01T08:06:59;5.07;;;2.30;;
13327;SDS011;6733;51.044;3.746;2023-04-01T08:17:59;4.73;;;2.40;;
13327;SDS011;6733;51.044;3.746;2023-04-01T08:20:41;4.23;;;2.67;;
13327;SDS011;6733;51.044;3.746;2023-04-01T08:23:17;3.33;;;2.50;;
13327;SDS011;6733;51.044;3.746;2023-04-01T08:28:44;6.93;;;2.90;;
13327;SDS011;6733;51.044;3.746;2023-04-01T08:34:18;6.03;;;3.00;;
13327;SDS011;6733;51.044;3.746;2023-04-01T08:36:50;6.37;;;3.67;;
13327;SDS011;6733;51.044;3.746;2023-04-01T08:39:29;7.00;;;3.40;;
13327;SDS011;6733;51.044;3.746;2023-04-01T08:45:14;7.40;;;3.90;;
13327;SDS011;6733;51.044;3.746;2023-04-01T08:47:46;6.03;;;3.80;;
13327;SDS011;6733;51.044;3.746;2023-04-01T08:51:21;6.57;;;3.50;;
13327;SDS011;6733;51.044;3.746;2023-04-01T08:54:01;6.40;;;3.10;;
13327;SDS011;6733;51.044;3.746;2023-04-01T08:56:39;6.37;;;3.10;;
13327;SDS011;6733;51.044;3.746;2023-04-01T09:08:08;8.77;;;3.60;;
13327;SDS011;6733;51.044;3.746;2023-04-01T09:17:02;4.83;;;2.10;;
13327;SDS011;6733;51.044;3.746;2023-04-01T09:22:36;4.73;;;1.60;;
13327;SDS011;6733;51.044;3.746;2023-04-01T09:25:26;2.50;;;1.80;;
13327;SDS011;6733;51.044;3.746;2023-04-01T09:36:12;4.03;;;2.27;;
13327;SDS011;6733;51.044;3.746;2023-04-01T09:38:59;3.50;;;2.17;;
13327;SDS011;6733;51.044;3.746;2023-04-01T09:44:37;5.03;;;1.60;;
13327;SDS011;6733;51.044;3.746;2023-04-01T09:47:14;2.50;;;1.70;;
13327;SDS011;6733;51.044;3.746;2023-04-01T09:55:59;3.30;;;1.90;;
13327;SDS011;6733;51.044;3.746;2023-04-01T10:01:45;7.90;;;2.40;;
13327;SDS011;6733;51.044;3.746;2023-04-01T10:43:58;3.43;;;2.10;;
13327;SDS011;6733;51.044;3.746;2023-04-01T10:46:52;2.83;;;1.83;;
13327;SDS011;6733;51.044;3.746;2023-04-01T10:57:43;2.90;;;2.03;;
13327;SDS011;6733;51.044;3.746;2023-04-01T11:00:36;3.13;;;1.60;;
13327;SDS011;6733;51.044;3.746;2023-04-01T11:25:36;1.70;;;1.40;;
13327;SDS011;6733;51.044;3.746;2023-04-01T11:41:38;2.80;;;2.00;;
13327;SDS011;6733;51.044;3.746;2023-04-01T11:47:00;5.73;;;2.07;;
13327;SDS011;6733;51.044;3.746;2023-04-01T11:52:33;4.17;;;2.17;;
13327;SDS011;6733;51.044;3.746;2023-04-01T12:00:43;3.67;;;1.93;;
13327;SDS011;6733;51.044;3.746;2023-04-01T12:17:51;6.00;;;2.70;;
13327;SDS011;6733;51.044;3.746;2023-04-01T12:29:18;4.80;;;2.37;;
13327;SDS011;6733;51.044;3.746;2023-04-01T12:31:42;4.30;;;2.60;;
13327;SDS011;6733;51.044;3.746;2023-04-01T12:40:20;3.73;;;2.83;;
13327;SDS011;6733;51.044;3.746;2023-04-01T12:43:14;4.67;;;2.20;;
13327;SDS011;6733;51.044;3.746;2023-04-01T13:10:38;2.17;;;1.40;;
13327;SDS011;6733;51.044;3.746;2023-04-01T13:13:38;3.17;;;1.63;;
13327;SDS011;6733;51.044;3.746;2023-04-01T13:16:26;2.60;;;1.80;;
13327;SDS011;6733;51.044;3.746;2023-04-01T13:19:20;3.20;;;1.70;;
13327;SDS011;6733;51.044;3.746;2023-04-01T13:21:50;5.63;;;1.80;;
13327;SDS011;6733;51.044;3.746;2023-04-01T13:27:17;3.13;;;2.00;;
13327;SDS011;6733;51.044;3.746;2023-04-01T13:29:47;2.60;;;2.10;;
13327;SDS011;6733;51.044;3.746;2023-04-01T13:33:30;3.17;;;2.03;;
13327;SDS011;6733;51.044;3.746;2023-04-01T13:35:52;2.87;;;1.87;;
13327;SDS011;6733;51.044;3.746;2023-04-01T13:38:45;2.83;;;1.57;;
13327;SDS011;6733;51.044;3.746;2023-04-01T13:44:16;2.70;;;1.53;;
13327;SDS011;6733;51.044;3.746;2023-04-01T13:46:57;1.77;;;1.57;;
13327;SDS011;6733;51.044;3.746;2023-04-01T13:49:50;1.83;;;1.50;;
13327;SDS011;6733;51.044;3.746;2023-04-01T13:55:28;2.53;;;1.40;;
13327;SDS011;6733;51.044;3.746;2023-04-01T13:58:31;2.10;;;1.50;;
13327;SDS011;6733;51.044;3.746;2023-04-01T14:01:39;3.97;;;1.80;;
13327;SDS011;6733;51.044;3.746;2023-04-01T14:07:18;2.83;;;1.20;;
13327;SDS011;6733;51.044;3.746;2023-04-01T14:10:08;1.43;;;1.33;;
13327;SDS011;6733;51.044;3.746;2023-04-01T14:12:48;3.37;;;1.53;;
13327;SDS011;6733;51.044;3.746;2023-04-01T14:21:27;2.60;;;1.80;;
13327;SDS011;6733;51.044;3.746;2023-04-01T14:32:48;1.70;;;1.43;;
13327;SDS011;6733;51.044;3.746;2023-04-01T14:35:33;3.77;;;1.60;;
13327;SDS011;6733;51.044;3.746;2023-04-01T14:44:01;3.33;;;1.80;;
13327;SDS011;6733;51.044;3.746;2023-04-01T14:49:52;3.73;;;1.90;;
13327;SDS011;6733;51.044;3.746;2023-04-01T14:52:32;2.57;;;1.57;;
13327;SDS011;6733;51.044;3.746;2023-04-01T14:55:19;3.37;;;1.90;;
13327;SDS011;6733;51.044;3.746;2023-04-01T14:58:04;2.20;;;1.43;;
13327;SDS011;6733;51.044;3.746;2023-04-01T15:34:40;2.60;;;1.90;;
13327;SDS011;6733;51.044;3.746;2023-04-01T15:37:26;3.00;;;1.80;;
13327;SDS011;6733;51.044;3.746;2023-04-01T15:41:24;5.17;;;1.93;;
13327;SDS011;6733;51.044;3.746;2023-04-01T15:45:58;5.27;;;1.83;;
13327;SDS011;6733;51.044;3.746;2023-04-01T15:56:19;2.87;;;2.20;;
13327;SDS011;6733;51.044;3.746;2023-04-01T15:59:18;4.03;;;2.60;;
13327;SDS011;6733;51.044;3.746;2023-04-01T16:02:40;2.77;;;2.23;;
13327;SDS011;6733;51.044;3.746;2023-04-01T16:19:21;3.10;;;2.20;;
13327;SDS011;6733;51.044;3.746;2023-04-01T16:22:14;6.23;;;2.40;;
13327;SDS011;6733;51.044;3.746;2023-04-01T16:27:35;3.37;;;2.17;;
13327;SDS011;6733;51.044;3.746;2023-04-01T16:33:44;3.70;;;2.53;;
13327;SDS011;6733;51.044;3.746;2023-04-01T16:36:19;3.80;;;2.27;;
13327;SDS011;6733;51.044;3.746;2023-04-01T16:39:08;4.90;;;2.93;;
13327;SDS011;6733;51.044;3.746;2023-04-01T16:41:49;4.60;;;2.40;;
13327;SDS011;6733;51.044;3.746;2023-04-01T16:44:50;5.00;;;2.60;;
13327;SDS011;6733;51.044;3.746;2023-04-01T16:47:46;6.03;;;2.60;;
13327;SDS011;6733;51.044;3.746;2023-04-01T16:50:23;4.23;;;3.40;;
13327;SDS011;6733;51.044;3.746;2023-04-01T16:55:48;7.10;;;3.20;;
13327;SDS011;6733;51.044;3.746;2023-04-01T16:58:25;6.47;;;3.50;;
13327;SDS011;6733;51.044;3.746;2023-04-01T17:00:55;6.53;;;3.60;;
13327;SDS011;6733;51.044;3.746;2023-04-01T17:06:41;5.23;;;3.70;;
13327;SDS011;6733;51.044;3.746;2023-04-01T17:14:46;4.60;;;3.67;;
13327;SDS011;6733;51.044;3.746;2023-04-01T17:19:55;6.93;;;3.53;;
13327;SDS011;6733;51.044;3.746;2023-04-01T17:31:07;3.73;;;3.30;;
13327;SDS011;6733;51.044;3.746;2023-04-01T17:36:35;3.70;;;3.13;;
13327;SDS011;6733;51.044;3.746;2023-04-01T17:39:21;3.93;;;3.60;;
13327;SDS011;6733;51.044;3.746;2023-04-01T17:41:57;8.47;;;3.97;;
13327;SDS011;6733;51.044;3.746;2023-04-01T17:44:49;6.87;;;4.30;;
13327;SDS011;6733;51.044;3.746;2023-04-01T17:47:25;7.10;;;4.23;;
13327;SDS011;6733;51.044;3.746;2023-04-01T17:58:17;7.93;;;5.17;;
13327;SDS011;6733;51.044;3.746;2023-04-01T18:11:50;14.23;;;7.90;;
13327;SDS011;6733;51.044;3.746;2023-04-01T18:19:48;12.07;;;7.33;;
13327;SDS011;6733;51.044;3.746;2023-04-01T18:22:36;11.30;;;7.07;;
13327;SDS011;6733;51.044;3.746;2023-04-01T18:25:17;16.77;;;8.50;;
13327;SDS011;6733;51.044;3.746;2023-04-01T18:33:29;16.93;;;9.73;;
13327;SDS011;6733;51.044;3.746;2023-04-01T18:39:03;18.20;;;10.47;;
13327;SDS011;6733;51.044;3.746;2023-04-01T18:52:44;23.40;;;12.20;;
13327;SDS011;6733;51.044;3.746;2023-04-01T18:58:07;21.07;;;12.27;;
13327;SDS011;6733;51.044;3.746;2023-04-01T19:01:07;25.03;;;12.27;;
13327;SDS011;6733;51.044;3.746;2023-04-01T19:03:42;17.17;;;11.60;;
13327;SDS011;6733;51.044;3.746;2023-04-01T19:06:20;23.43;;;11.63;;
13327;SDS011;6733;51.044;3.746;2023-04-01T19:09:00;20.70;;;11.67;;
13327;SDS011;6733;51.044;3.746;2023-04-01T19:11:45;19.73;;;11.13;;
13327;SDS011;6733;51.044;3.746;2023-04-01T19:21:03;21.73;;;11.03;;
13327;SDS011;6733;51.044;3.746;2023-04-01T19:35:06;16.63;;;8.57;;
13327;SDS011;6733;51.044;3.746;2023-04-01T19:38:10;21.47;;;8.87;;
13327;SDS011;6733;51.044;3.746;2023-04-01T19:41:16;17.37;;;8.97;;
13327;SDS011;6733;51.044;3.746;2023-04-01T19:43:50;18.37;;;8.53;;
13327;SDS011;6733;51.044;3.746;2023-04-01T19:46:55;17.33;;;7.90;;
13327;SDS011;6733;51.044;3.746;2023-04-01T19:52:09;17.70;;;7.33;;
13327;SDS011;6733;51.044;3.746;2023-04-01T19:54:54;20.27;;;7.73;;
13327;SDS011;6733;51.044;3.746;2023-04-01T19:57:46;16.40;;;7.43;;
13327;SDS011;6733;51.044;3.746;2023-04-01T20:00:47;20.50;;;7.97;;
13327;SDS011;6733;51.044;3.746;2023-04-01T20:08:58;18.07;;;7.37;;
13327;SDS011;6733;51.044;3.746;2023-04-01T20:11:43;20.63;;;8.63;;
13327;SDS011;6733;51.044;3.746;2023-04-01T20:14:25;15.83;;;8.07;;
13327;SDS011;6733;51.044;3.746;2023-04-01T20:19:39;19.60;;;7.67;;
13327;SDS011;6733;51.044;3.746;2023-04-01T20:27:56;20.07;;;9.00;;
13327;SDS011;6733;51.044;3.746;2023-04-01T20:34:00;19.70;;;8.43;;
13327;SDS011;6733;51.044;3.746;2023-04-01T20:44:59;22.73;;;10.17;;
13327;SDS011;6733;51.044;3.746;2023-04-01T20:50:45;22.27;;;10.93;;
13327;SDS011;6733;51.044;3.746;2023-04-01T20:56:11;26.87;;;11.50;;
13327;SDS011;6733;51.044;3.746;2023-04-01T21:01:19;18.20;;;11.83;;
13327;SDS011;6733;51.044;3.746;2023-04-01T21:06:54;27.00;;;12.37;;
13327;SDS011;6733;51.044;3.746;2023-04-01T21:18:17;35.27;;;14.23;;
13327;SDS011;6733;51.044;3.746;2023-04-01T21:29:39;30.23;;;14.67;;
13327;SDS011;6733;51.044;3.746;2023-04-01T21:35:02;34.63;;;13.80;;
13327;SDS011;6733;51.044;3.746;2023-04-01T21:37:33;26.77;;;13.10;;
13327;SDS011;6733;51.044;3.746;2023-04-01T21:45:59;29.67;;;14.27;;
13327;SDS011;6733;51.044;3.746;2023-04-01T21:48:43;29.90;;;13.77;;
13327;SDS011;6733;51.044;3.746;2023-04-01T22:02:42;26.43;;;13.13;;
13327;SDS011;6733;51.044;3.746;2023-04-01T22:08:20;28.13;;;14.13;;
13327;SDS011;6733;51.044;3.746;2023-04-01T22:13:48;30.73;;;13.70;;
13327;SDS011;6733;51.044;3.746;2023-04-01T22:16:25;33.53;;;13.53;;
13327;SDS011;6733;51.044;3.746;2023-04-01T22:19:04;21.13;;;12.30;;
13327;SDS011;6733;51.044;3.746;2023-04-01T22:21:35;25.63;;;12.67;;
13327;SDS011;6733;51.044;3.746;2023-04-01T22:24:17;35.03;;;13.33;;
13327;SDS011;6733;51.044;3.746;2023-04-01T22:30:26;30.03;;;13.80;;
13327;SDS011;6733;51.044;3.746;2023-04-01T22:33:02;30.90;;;14.27;;
13327;SDS011;6733;51.044;3.746;2023-04-01T22:38:26;25.60;;;13.13;;
13327;SDS011;6733;51.044;3.746;2023-04-01T22:43:55;29.13;;;14.17;;
13327;SDS011;6733;51.044;3.746;2023-04-01T22:54:32;27.57;;;14.93;;
13327;SDS011;6733;51.044;3.746;2023-04-01T22:57:02;26.97;;;14.83;;
13327;SDS011;6733;51.044;3.746;2023-04-01T22:59:37;26.63;;;14.67;;
13327;SDS011;6733;51.044;3.746;2023-04-01T23:02:15;24.77;;;14.43;;
13327;SDS011;6733;51.044;3.746;2023-04-01T23:04:55;26.13;;;15.33;;
13327;SDS011;6733;51.044;3.746;2023-04-01T23:07:41;24.27;;;15.07;;
13327;SDS011;6733;51.044;3.746;2023-04-01T23:10:18;23.43;;;15.37;;
13327;SDS011;6733;51.044;3.746;2023-04-01T23:12:49;27.37;;;15.70;;
13327;SDS011;6733;51.044;3.746;2023-04-01T23:15:19;23.60;;;16.13;;
13327;SDS011;6733;51.044;3.746;2023-04-01T23:20:58;25.43;;;16.37;;
13327;SDS011;6733;51.044;3.746;2023-04-01T23:23:52;27.80;;;16.87;;
13327;SDS011;6733;51.044;3.746;2023-04-01T23:26:52;22.47;;;16.70;;
13327;SDS011;6733;51.044;3.746;2023-04-01T23:29:24;27.10;;;18.27;;
13327;SDS011;6733;51.044;3.746;2023-04-01T23:32:01;27.73;;;18.33;;
13327;SDS011;6733;51.044;3.746;2023-04-01T23:34:29;31.87;;;20.47;;
13327;SDS011;6733;51.044;3.746;2023-04-01T23:37:02;29.40;;;21.63;;
13327;SDS011;6733;51.044;3.746;2023-04-01T23:39:42;29.87;;;21.53;;
13327;SDS011;6733;51.044;3.746;2023-04-01T23:42:30;34.50;;;22.03;;
13327;SDS011;6733;51.044;3.746;2023-04-01T23:44:59;32.50;;;22.60;;
13327;SDS011;6733;51.044;3.746;2023-04-01T23:47:38;30.50;;;21.60;;
13327;SDS011;6733;51.044;3.746;2023-04-01T23:50:06;35.37;;;23.03;;
13327;SDS011;6733;51.044;3.746;2023-04-01T23:52:39;29.53;;;22.73;;
13327;SDS011;6733;51.044;3.746;2023-04-01T23:57:35;28.23;;;22.23;;
